sensor_id;sensor_type;location;lat;lon;timestamp;temperature;humidity
22674;DHT22;11504;43.334;21.918;2022-09-13T00:04:21;17.1;100.0
22674;DHT22;11504;43.334;21.918;2022-09-13T00:08:58;16.8;100.0
22674;DHT22;11504;43.334;21.918;2022-09-13T00:13:36;16.8;100.0
22674;DHT22;11504;43.334;21.918;2022-09-13T00:18:15;16.8;100.0
22674;DHT22;11504;43.334;21.918;2022-09-13T00:22:54;16.6;100.0
22674;DHT22;11504;43.334;21.918;2022-09-13T00:27:32;16.6;100.0
22674;DHT22;11504;43.334;21.918;2022-09-13T00:32:12;16.5;100.0
22674;DHT22;11504;43.334;21.918;2022-09-13T00:36:48;16.5;100.0
22674;DHT22;11504;43.334;21.918;2022-09-13T00:41:26;16.4;100.0
22674;DHT22;11504;43.334;21.918;2022-09-13T00:46:04;16.4;100.0
22674;DHT22;11504;43.334;21.918;2022-09-13T00:50:51;16.4;100.0
22674;DHT22;11504;43.334;21.918;2022-09-13T00:55:45;16.4;100.0
22674;DHT22;11504;43.334;21.918;2022-09-13T01:00:35;16.4;100.0
22674;DHT22;11504;43.334;21.918;2022-09-13T01:05:21;16.4;100.0
22674;DHT22;11504;43.334;21.918;2022-09-13T01:10:07;16.2;100.0
22674;DHT22;11504;43.334;21.918;2022-09-13T01:14:48;16.2;100.0
22674;DHT22;11504;43.334;21.918;2022-09-13T01:19:24;16.1;100.0
22674;DHT22;11504;43.334;21.918;2022-09-13T01:24:54;16.1;100.0
22674;DHT22;11504;43.334;21.918;2022-09-13T01:30:17;16.0;100.0
22674;DHT22;11504;43.334;21.918;2022-09-13T01:35:22;16.0;100.0
22674;DHT22;11504;43.334;21.918;2022-09-13T01:41:19;16.0;100.0
22674;DHT22;11504;43.334;21.918;2022-09-13T01:47:00;16.0;100.0
22674;DHT22;11504;43.334;21.918;2022-09-13T01:52:20;15.9;100.0
22674;DHT22;11504;43.334;21.918;2022-09-13T01:57:38;15.9;100.0
22674;DHT22;11504;43.334;21.918;2022-09-13T02:02:45;15.8;100.0
22674;DHT22;11504;43.334;21.918;2022-09-13T02:08:04;15.8;100.0
22674;DHT22;11504;43.334;21.918;2022-09-13T02:13:20;15.6;100.0
22674;DHT22;11504;43.334;21.918;2022-09-13T02:18:34;15.6;100.0
22674;DHT22;11504;43.334;21.918;2022-09-13T02:23:47;15.4;100.0
22674;DHT22;11504;43.334;21.918;2022-09-13T02:28:50;15.4;100.0
22674;DHT22;11504;43.334;21.918;2022-09-13T02:33:50;15.4;100.0
22674;DHT22;11504;43.334;21.918;2022-09-13T02:38:55;15.4;100.0
22674;DHT22;11504;43.334;21.918;2022-09-13T02:43:52;15.4;100.0
22674;DHT22;11504;43.334;21.918;2022-09-13T02:48:59;15.2;100.0
22674;DHT22;11504;43.334;21.918;2022-09-13T02:54:23;15.2;100.0
22674;DHT22;11504;43.334;21.918;2022-09-13T02:59:28;15.1;100.0
22674;DHT22;11504;43.334;21.918;2022-09-13T03:04:06;15.1;100.0
22674;DHT22;11504;43.334;21.918;2022-09-13T03:08:43;15.1;100.0
22674;DHT22;11504;43.334;21.918;2022-09-13T03:13:59;15.0;100.0
22674;DHT22;11504;43.334;21.918;2022-09-13T03:19:49;14.9;100.0
22674;DHT22;11504;43.334;21.918;2022-09-13T03:25:07;14.9;100.0
22674;DHT22;11504;43.334;21.918;2022-09-13T03:30:13;14.7;100.0
22674;DHT22;11504;43.334;21.918;2022-09-13T03:35:17;14.7;100.0
22674;DHT22;11504;43.334;21.918;2022-09-13T03:40:20;14.5;100.0
22674;DHT22;11504;43.334;21.918;2022-09-13T03:45:25;14.5;100.0
22674;DHT22;11504;43.334;21.918;2022-09-13T03:50:09;14.5;100.0
22674;DHT22;11504;43.334;21.918;2022-09-13T03:54:52;14.5;100.0
22674;DHT22;11504;43.334;21.918;2022-09-13T03:59:29;14.5;100.0
22674;DHT22;11504;43.334;21.918;2022-09-13T04:04:06;14.5;100.0
22674;DHT22;11504;43.334;21.918;2022-09-13T04:08:43;14.5;100.0
22674;DHT22;11504;43.334;21.918;2022-09-13T04:13:19;14.5;100.0
22674;DHT22;11504;43.334;21.918;2022-09-13T04:17:57;14.5;100.0
22674;DHT22;11504;43.334;21.918;2022-09-13T04:22:34;14.5;100.0
22674;DHT22;11504;43.334;21.918;2022-09-13T04:27:12;14.5;100.0
22674;DHT22;11504;43.334;21.918;2022-09-13T04:31:53;14.4;100.0
22674;DHT22;11504;43.334;21.918;2022-09-13T04:36:30;14.4;100.0
22674;DHT22;11504;43.334;21.918;2022-09-13T04:41:08;14.4;100.0
22674;DHT22;11504;43.334;21.918;2022-09-13T04:45:45;14.4;100.0
22674;DHT22;11504;43.334;21.918;2022-09-13T04:50:24;15.2;100.0
22674;DHT22;11504;43.334;21.918;2022-09-13T04:55:02;15.2;100.0
22674;DHT22;11504;43.334;21.918;2022-09-13T04:59:43;15.9;100.0
22674;DHT22;11504;43.334;21.918;2022-09-13T05:04:20;15.9;100.0
22674;DHT22;11504;43.334;21.918;2022-09-13T05:08:57;18.8;100.0
22674;DHT22;11504;43.334;21.918;2022-09-13T05:13:34;18.8;100.0
22674;DHT22;11504;43.334;21.918;2022-09-13T05:18:12;18.8;100.0
22674;DHT22;11504;43.334;21.918;2022-09-13T05:22:49;21.6;100.0
22674;DHT22;11504;43.334;21.918;2022-09-13T05:27:26;21.6;100.0
22674;DHT22;11504;43.334;21.918;2022-09-13T05:32:03;23.5;100.0
22674;DHT22;11504;43.334;21.918;2022-09-13T05:36:41;23.5;100.0
22674;DHT22;11504;43.334;21.918;2022-09-13T05:41:20;25.4;100.0
22674;DHT22;11504;43.334;21.918;2022-09-13T05:46:04;25.4;100.0
22674;DHT22;11504;43.334;21.918;2022-09-13T05:50:49;25.8;100.0
22674;DHT22;11504;43.334;21.918;2022-09-13T05:55:26;25.8;100.0
22674;DHT22;11504;43.334;21.918;2022-09-13T06:00:05;26.2;100.0
22674;DHT22;11504;43.334;21.918;2022-09-13T06:04:44;26.2;100.0
22674;DHT22;11504;43.334;21.918;2022-09-13T06:09:20;27.9;100.0
22674;DHT22;11504;43.334;21.918;2022-09-13T06:13:57;27.9;100.0
22674;DHT22;11504;43.334;21.918;2022-09-13T06:18:35;27.9;100.0
22674;DHT22;11504;43.334;21.918;2022-09-13T06:23:14;29.6;100.0
22674;DHT22;11504;43.334;21.918;2022-09-13T06:27:52;29.6;100.0
22674;DHT22;11504;43.334;21.918;2022-09-13T06:32:28;29.4;100.0
22674;DHT22;11504;43.334;21.918;2022-09-13T06:37:05;29.4;100.0
22674;DHT22;11504;43.334;21.918;2022-09-13T06:41:42;29.2;100.0
22674;DHT22;11504;43.334;21.918;2022-09-13T06:46:19;29.2;100.0
22674;DHT22;11504;43.334;21.918;2022-09-13T06:50:59;28.7;100.0
22674;DHT22;11504;43.334;21.918;2022-09-13T06:55:41;28.7;100.0
22674;DHT22;11504;43.334;21.918;2022-09-13T07:00:18;28.2;100.0
22674;DHT22;11504;43.334;21.918;2022-09-13T07:04:55;28.2;100.0
22674;DHT22;11504;43.334;21.918;2022-09-13T07:09:32;28.4;100.0
22674;DHT22;11504;43.334;21.918;2022-09-13T07:14:16;28.4;100.0
22674;DHT22;11504;43.334;21.918;2022-09-13T07:19:03;28.6;100.0
22674;DHT22;11504;43.334;21.918;2022-09-13T07:23:51;28.6;100.0
22674;DHT22;11504;43.334;21.918;2022-09-13T07:28:39;28.6;100.0
22674;DHT22;11504;43.334;21.918;2022-09-13T07:33:24;27.9;100.0
22674;DHT22;11504;43.334;21.918;2022-09-13T07:38:01;27.9;100.0
22674;DHT22;11504;43.334;21.918;2022-09-13T07:42:38;27.2;100.0
22674;DHT22;11504;43.334;21.918;2022-09-13T07:47:15;27.2;100.0
22674;DHT22;11504;43.334;21.918;2022-09-13T07:51:51;27.0;100.0
22674;DHT22;11504;43.334;21.918;2022-09-13T07:56:34;27.0;100.0
22674;DHT22;11504;43.334;21.918;2022-09-13T08:01:20;26.7;100.0
22674;DHT22;11504;43.334;21.918;2022-09-13T08:06:04;26.7;100.0
22674;DHT22;11504;43.334;21.918;2022-09-13T08:10:44;27.8;100.0
22674;DHT22;11504;43.334;21.918;2022-09-13T08:15:21;27.8;100.0
22674;DHT22;11504;43.334;21.918;2022-09-13T08:19:58;28.8;100.0
22674;DHT22;11504;43.334;21.918;2022-09-13T08:24:36;28.8;100.0
22674;DHT22;11504;43.334;21.918;2022-09-13T08:29:16;29.0;100.0
22674;DHT22;11504;43.334;21.918;2022-09-13T08:33:55;29.0;100.0
22674;DHT22;11504;43.334;21.918;2022-09-13T08:38:33;29.0;100.0
22674;DHT22;11504;43.334;21.918;2022-09-13T08:43:39;29.1;100.0
22674;DHT22;11504;43.334;21.918;2022-09-13T08:48:43;29.1;100.0
22674;DHT22;11504;43.334;21.918;2022-09-13T08:53:40;29.2;100.0
22674;DHT22;11504;43.334;21.918;2022-09-13T08:58:56;29.2;100.0
22674;DHT22;11504;43.334;21.918;2022-09-13T09:04:30;29.2;100.0
22674;DHT22;11504;43.334;21.918;2022-09-13T09:09:20;29.2;100.0
22674;DHT22;11504;43.334;21.918;2022-09-13T09:14:13;29.2;100.0
22674;DHT22;11504;43.334;21.918;2022-09-13T09:19:17;29.2;100.0
22674;DHT22;11504;43.334;21.918;2022-09-13T09:24:03;29.2;100.0
22674;DHT22;11504;43.334;21.918;2022-09-13T09:28:54;29.2;100.0
22674;DHT22;11504;43.334;21.918;2022-09-13T09:34:08;29.0;100.0
22674;DHT22;11504;43.334;21.918;2022-09-13T09:39:14;28.8;100.0
22674;DHT22;11504;43.334;21.918;2022-09-13T09:44:15;28.8;100.0
22674;DHT22;11504;43.334;21.918;2022-09-13T09:49:16;28.2;100.0
22674;DHT22;11504;43.334;21.918;2022-09-13T09:54:11;28.2;100.0
22674;DHT22;11504;43.334;21.918;2022-09-13T09:58:52;28.2;100.0
22674;DHT22;11504;43.334;21.918;2022-09-13T10:03:33;27.6;100.0
22674;DHT22;11504;43.334;21.918;2022-09-13T10:08:32;27.6;100.0
22674;DHT22;11504;43.334;21.918;2022-09-13T10:13:31;27.4;100.0
22674;DHT22;11504;43.334;21.918;2022-09-13T10:18:17;27.4;100.0
22674;DHT22;11504;43.334;21.918;2022-09-13T10:23:33;27.3;100.0
22674;DHT22;11504;43.334;21.918;2022-09-13T10:28:18;27.3;100.0
22674;DHT22;11504;43.334;21.918;2022-09-13T10:32:59;27.4;100.0
22674;DHT22;11504;43.334;21.918;2022-09-13T10:37:44;27.4;100.0
22674;DHT22;11504;43.334;21.918;2022-09-13T10:42:27;27.6;100.0
22674;DHT22;11504;43.334;21.918;2022-09-13T10:47:20;27.6;100.0
22674;DHT22;11504;43.334;21.918;2022-09-13T10:53:38;27.0;100.0
22674;DHT22;11504;43.334;21.918;2022-09-13T10:58:19;27.0;100.0
22674;DHT22;11504;43.334;21.918;2022-09-13T11:03:39;26.5;100.0
22674;DHT22;11504;43.334;21.918;2022-09-13T11:09:44;26.2;100.0
22674;DHT22;11504;43.334;21.918;2022-09-13T11:15:17;26.2;100.0
22674;DHT22;11504;43.334;21.918;2022-09-13T11:20:44;26.0;100.0
22674;DHT22;11504;43.334;21.918;2022-09-13T11:26:17;26.0;100.0
22674;DHT22;11504;43.334;21.918;2022-09-13T11:31:47;26.2;100.0
22674;DHT22;11504;43.334;21.918;2022-09-13T11:37:24;26.2;100.0
22674;DHT22;11504;43.334;21.918;2022-09-13T11:42:53;26.4;100.0
22674;DHT22;11504;43.334;21.918;2022-09-13T11:48:30;26.4;100.0
22674;DHT22;11504;43.334;21.918;2022-09-13T11:54:15;26.3;100.0
22674;DHT22;11504;43.334;21.918;2022-09-13T11:59:32;26.2;100.0
22674;DHT22;11504;43.334;21.918;2022-09-13T12:04:27;26.2;100.0
22674;DHT22;11504;43.334;21.918;2022-09-13T12:09:28;26.3;100.0
22674;DHT22;11504;43.334;21.918;2022-09-13T12:14:24;26.3;100.0
22674;DHT22;11504;43.334;21.918;2022-09-13T12:19:37;26.4;100.0
22674;DHT22;11504;43.334;21.918;2022-09-13T12:24:42;26.4;100.0
22674;DHT22;11504;43.334;21.918;2022-09-13T12:29:45;26.4;100.0
22674;DHT22;11504;43.334;21.918;2022-09-13T12:34:48;26.4;100.0
22674;DHT22;11504;43.334;21.918;2022-09-13T12:40:42;26.3;100.0
22674;DHT22;11504;43.334;21.918;2022-09-13T12:46:46;26.3;100.0
22674;DHT22;11504;43.334;21.918;2022-09-13T12:53:34;26.2;100.0
22674;DHT22;11504;43.334;21.918;2022-09-13T13:00:23;26.2;100.0
22674;DHT22;11504;43.334;21.918;2022-09-13T13:05:32;26.2;100.0
22674;DHT22;11504;43.334;21.918;2022-09-13T13:10:32;26.2;100.0
22674;DHT22;11504;43.334;21.918;2022-09-13T13:16:22;26.2;100.0
22674;DHT22;11504;43.334;21.918;2022-09-13T13:21:34;26.2;100.0
22674;DHT22;11504;43.334;21.918;2022-09-13T13:26:48;26.2;100.0
22674;DHT22;11504;43.334;21.918;2022-09-13T13:31:41;26.1;100.0
22674;DHT22;11504;43.334;21.918;2022-09-13T13:36:58;26.1;100.0
22674;DHT22;11504;43.334;21.918;2022-09-13T13:42:27;26.0;100.0
22674;DHT22;11504;43.334;21.918;2022-09-13T13:48:13;26.0;100.0
22674;DHT22;11504;43.334;21.918;2022-09-13T13:53:16;25.6;100.0
22674;DHT22;11504;43.334;21.918;2022-09-13T13:58:14;25.6;100.0
22674;DHT22;11504;43.334;21.918;2022-09-13T14:03:40;25.3;100.0
22674;DHT22;11504;43.334;21.918;2022-09-13T14:11:15;25.2;100.0
22674;DHT22;11504;43.334;21.918;2022-09-13T14:16:48;25.2;100.0
22674;DHT22;11504;43.334;21.918;2022-09-13T14:22:14;25.2;100.0
22674;DHT22;11504;43.334;21.918;2022-09-13T14:26:59;25.2;100.0
22674;DHT22;11504;43.334;21.918;2022-09-13T14:31:37;25.2;100.0
22674;DHT22;11504;43.334;21.918;2022-09-13T14:36:21;25.2;100.0
22674;DHT22;11504;43.334;21.918;2022-09-13T14:41:13;25.3;100.0
22674;DHT22;11504;43.334;21.918;2022-09-13T14:46:07;25.3;100.0
22674;DHT22;11504;43.334;21.918;2022-09-13T14:51:05;25.2;100.0
22674;DHT22;11504;43.334;21.918;2022-09-13T14:56:02;25.2;100.0
22674;DHT22;11504;43.334;21.918;2022-09-13T15:01:03;25.2;100.0
22674;DHT22;11504;43.334;21.918;2022-09-13T15:05:55;25.2;100.0
22674;DHT22;11504;43.334;21.918;2022-09-13T15:10:44;25.2;100.0
22674;DHT22;11504;43.334;21.918;2022-09-13T15:15:36;25.2;100.0
22674;DHT22;11504;43.334;21.918;2022-09-13T15:20:16;25.3;100.0
22674;DHT22;11504;43.334;21.918;2022-09-13T15:24:58;25.3;100.0
22674;DHT22;11504;43.334;21.918;2022-09-13T15:29:39;25.1;100.0
22674;DHT22;11504;43.334;21.918;2022-09-13T15:34:24;25.1;100.0
22674;DHT22;11504;43.334;21.918;2022-09-13T15:39:17;25.1;100.0
22674;DHT22;11504;43.334;21.918;2022-09-13T15:43:59;24.9;100.0
22674;DHT22;11504;43.334;21.918;2022-09-13T15:48:54;24.9;100.0
22674;DHT22;11504;43.334;21.918;2022-09-13T15:53:45;24.6;100.0
22674;DHT22;11504;43.334;21.918;2022-09-13T15:58:22;24.6;100.0
22674;DHT22;11504;43.334;21.918;2022-09-13T16:02:59;24.3;100.0
22674;DHT22;11504;43.334;21.918;2022-09-13T16:07:39;24.3;100.0
22674;DHT22;11504;43.334;21.918;2022-09-13T16:12:20;24.0;100.0
22674;DHT22;11504;43.334;21.918;2022-09-13T16:17:05;24.0;100.0
22674;DHT22;11504;43.334;21.918;2022-09-13T16:21:57;23.8;100.0
22674;DHT22;11504;43.334;21.918;2022-09-13T16:26:34;23.8;100.0
22674;DHT22;11504;43.334;21.918;2022-09-13T16:31:15;23.6;100.0
22674;DHT22;11504;43.334;21.918;2022-09-13T16:35:52;23.6;100.0
22674;DHT22;11504;43.334;21.918;2022-09-13T16:40:29;23.5;100.0
22674;DHT22;11504;43.334;21.918;2022-09-13T16:45:09;23.5;100.0
22674;DHT22;11504;43.334;21.918;2022-09-13T16:49:47;23.2;100.0
22674;DHT22;11504;43.334;21.918;2022-09-13T16:54:24;23.2;100.0
22674;DHT22;11504;43.334;21.918;2022-09-13T16:59:01;23.2;100.0
22674;DHT22;11504;43.334;21.918;2022-09-13T17:03:39;23.0;100.0
22674;DHT22;11504;43.334;21.918;2022-09-13T17:08:16;23.0;100.0
22674;DHT22;11504;43.334;21.918;2022-09-13T17:12:52;22.8;100.0
22674;DHT22;11504;43.334;21.918;2022-09-13T17:17:29;22.8;100.0
22674;DHT22;11504;43.334;21.918;2022-09-13T17:22:05;22.5;100.0
22674;DHT22;11504;43.334;21.918;2022-09-13T17:26:43;22.5;100.0
22674;DHT22;11504;43.334;21.918;2022-09-13T17:31:20;22.2;100.0
22674;DHT22;11504;43.334;21.918;2022-09-13T17:35:58;22.2;100.0
22674;DHT22;11504;43.334;21.918;2022-09-13T17:40:40;22.0;100.0
22674;DHT22;11504;43.334;21.918;2022-09-13T17:45:17;22.0;100.0
22674;DHT22;11504;43.334;21.918;2022-09-13T17:49:54;21.8;100.0
22674;DHT22;11504;43.334;21.918;2022-09-13T17:54:31;21.8;100.0
22674;DHT22;11504;43.334;21.918;2022-09-13T17:59:14;21.8;100.0
22674;DHT22;11504;43.334;21.918;2022-09-13T18:03:56;21.5;100.0
22674;DHT22;11504;43.334;21.918;2022-09-13T18:08:38;21.5;100.0
22674;DHT22;11504;43.334;21.918;2022-09-13T18:13:19;21.3;100.0
22674;DHT22;11504;43.334;21.918;2022-09-13T18:17:58;21.3;100.0
22674;DHT22;11504;43.334;21.918;2022-09-13T18:22:35;21.1;100.0
22674;DHT22;11504;43.334;21.918;2022-09-13T18:27:13;21.1;100.0
22674;DHT22;11504;43.334;21.918;2022-09-13T18:31:50;20.7;100.0
22674;DHT22;11504;43.334;21.918;2022-09-13T18:36:32;20.7;100.0
22674;DHT22;11504;43.334;21.918;2022-09-13T18:41:18;20.3;100.0
22674;DHT22;11504;43.334;21.918;2022-09-13T18:46:06;20.3;100.0
22674;DHT22;11504;43.334;21.918;2022-09-13T18:50:49;20.0;100.0
22674;DHT22;11504;43.334;21.918;2022-09-13T18:55:26;20.0;100.0
22674;DHT22;11504;43.334;21.918;2022-09-13T19:00:08;19.8;100.0
22674;DHT22;11504;43.334;21.918;2022-09-13T19:04:48;19.8;100.0
22674;DHT22;11504;43.334;21.918;2022-09-13T19:09:25;19.8;100.0
22674;DHT22;11504;43.334;21.918;2022-09-13T19:14:04;19.6;100.0
22674;DHT22;11504;43.334;21.918;2022-09-13T19:18:47;19.6;100.0
22674;DHT22;11504;43.334;21.918;2022-09-13T19:23:25;19.4;100.0
22674;DHT22;11504;43.334;21.918;2022-09-13T19:28:02;19.4;100.0
22674;DHT22;11504;43.334;21.918;2022-09-13T19:32:39;19.2;100.0
22674;DHT22;11504;43.334;21.918;2022-09-13T19:37:16;19.2;100.0
22674;DHT22;11504;43.334;21.918;2022-09-13T19:41:53;19.0;100.0
22674;DHT22;11504;43.334;21.918;2022-09-13T19:46:36;19.0;100.0
22674;DHT22;11504;43.334;21.918;2022-09-13T19:51:20;18.8;100.0
22674;DHT22;11504;43.334;21.918;2022-09-13T19:55:57;18.8;100.0
22674;DHT22;11504;43.334;21.918;2022-09-13T20:00:34;18.7;100.0
22674;DHT22;11504;43.334;21.918;2022-09-13T20:05:11;18.7;100.0
22674;DHT22;11504;43.334;21.918;2022-09-13T20:09:48;18.5;100.0
22674;DHT22;11504;43.334;21.918;2022-09-13T20:14:26;18.5;100.0
22674;DHT22;11504;43.334;21.918;2022-09-13T20:19:06;18.5;100.0
22674;DHT22;11504;43.334;21.918;2022-09-13T20:23:48;18.4;100.0
22674;DHT22;11504;43.334;21.918;2022-09-13T20:28:31;18.4;100.0
22674;DHT22;11504;43.334;21.918;2022-09-13T20:33:08;18.2;100.0
22674;DHT22;11504;43.334;21.918;2022-09-13T20:37:45;18.2;100.0
22674;DHT22;11504;43.334;21.918;2022-09-13T20:42:22;18.1;100.0
22674;DHT22;11504;43.334;21.918;2022-09-13T20:47:00;18.1;100.0
22674;DHT22;11504;43.334;21.918;2022-09-13T20:51:38;17.9;100.0
22674;DHT22;11504;43.334;21.918;2022-09-13T20:56:18;17.9;100.0
22674;DHT22;11504;43.334;21.918;2022-09-13T21:01:06;17.7;100.0
22674;DHT22;11504;43.334;21.918;2022-09-13T21:05:51;17.7;100.0
22674;DHT22;11504;43.334;21.918;2022-09-13T21:10:28;17.6;100.0
22674;DHT22;11504;43.334;21.918;2022-09-13T21:15:08;17.6;100.0
22674;DHT22;11504;43.334;21.918;2022-09-13T21:19:46;17.6;100.0
22674;DHT22;11504;43.334;21.918;2022-09-13T21:24:24;17.6;100.0
22674;DHT22;11504;43.334;21.918;2022-09-13T21:29:02;17.6;100.0
22674;DHT22;11504;43.334;21.918;2022-09-13T21:33:40;17.4;100.0
22674;DHT22;11504;43.334;21.918;2022-09-13T21:38:18;17.4;100.0
22674;DHT22;11504;43.334;21.918;2022-09-13T21:42:55;17.2;100.0
22674;DHT22;11504;43.334;21.918;2022-09-13T21:47:32;17.2;100.0
22674;DHT22;11504;43.334;21.918;2022-09-13T21:52:09;17.0;100.0
22674;DHT22;11504;43.334;21.918;2022-09-13T21:56:52;17.0;100.0
22674;DHT22;11504;43.334;21.918;2022-09-13T22:01:35;16.7;100.0
22674;DHT22;11504;43.334;21.918;2022-09-13T22:06:17;16.7;100.0
22674;DHT22;11504;43.334;21.918;2022-09-13T22:10:55;16.5;100.0
22674;DHT22;11504;43.334;21.918;2022-09-13T22:15:34;16.5;100.0
22674;DHT22;11504;43.334;21.918;2022-09-13T22:20:10;16.4;100.0
22674;DHT22;11504;43.334;21.918;2022-09-13T22:24:47;16.4;100.0
22674;DHT22;11504;43.334;21.918;2022-09-13T22:29:25;16.4;100.0
22674;DHT22;11504;43.334;21.918;2022-09-13T22:34:06;16.4;100.0
22674;DHT22;11504;43.334;21.918;2022-09-13T22:38:49;16.4;100.0
22674;DHT22;11504;43.334;21.918;2022-09-13T22:43:29;16.3;100.0
22674;DHT22;11504;43.334;21.918;2022-09-13T22:48:08;16.3;100.0
22674;DHT22;11504;43.334;21.918;2022-09-13T22:52:45;16.2;100.0
22674;DHT22;11504;43.334;21.918;2022-09-13T22:57:22;16.2;100.0
22674;DHT22;11504;43.334;21.918;2022-09-13T23:01:59;16.2;100.0
22674;DHT22;11504;43.334;21.918;2022-09-13T23:06:37;16.2;100.0
22674;DHT22;11504;43.334;21.918;2022-09-13T23:11:24;16.1;100.0
22674;DHT22;11504;43.334;21.918;2022-09-13T23:16:15;16.1;100.0
22674;DHT22;11504;43.334;21.918;2022-09-13T23:20:58;16.0;100.0
22674;DHT22;11504;43.334;21.918;2022-09-13T23:25:35;16.0;100.0
22674;DHT22;11504;43.334;21.918;2022-09-13T23:30:13;16.0;100.0
22674;DHT22;11504;43.334;21.918;2022-09-13T23:34:52;16.0;100.0
22674;DHT22;11504;43.334;21.918;2022-09-13T23:39:29;16.0;100.0
22674;DHT22;11504;43.334;21.918;2022-09-13T23:44:07;16.0;100.0
22674;DHT22;11504;43.334;21.918;2022-09-13T23:48:45;16.0;100.0
22674;DHT22;11504;43.334;21.918;2022-09-13T23:53:23;15.8;100.0
22674;DHT22;11504;43.334;21.918;2022-09-13T23:58:00;15.8;100.0
